createdAt,value
2018-05-23T00:00:26.351Z,15.75
2018-05-23T00:02:55.219Z,15.83
2018-05-23T00:05:21.166Z,15.85
2018-05-23T00:07:50.508Z,15.77
2018-05-23T00:10:16.431Z,15.64
2018-05-23T00:12:45.477Z,15.59
2018-05-23T00:15:11.357Z,15.48
2018-05-23T00:17:40.361Z,15.45
2018-05-23T00:20:06.259Z,15.47
2018-05-23T00:22:32.166Z,15.49
2018-05-23T00:24:58.104Z,15.42
2018-05-23T00:27:24.007Z,15.43
2018-05-23T00:29:51.200Z,15.40
2018-05-23T00:32:17.154Z,15.33
2018-05-23T00:34:46.610Z,15.26
2018-05-23T00:37:19.713Z,15.21
2018-05-23T00:39:45.652Z,15.27
2018-05-23T00:42:11.561Z,15.41
2018-05-23T00:44:37.464Z,15.55
2018-05-23T00:47:03.379Z,15.69
2018-05-23T00:49:29.819Z,15.74
2018-05-23T00:51:55.838Z,15.68
2018-05-23T00:54:28.559Z,15.64
2018-05-23T00:56:54.514Z,15.61
2018-05-23T00:59:20.411Z,15.60
2018-05-23T01:01:46.328Z,15.44
2018-05-23T01:04:12.199Z,15.31
2018-05-23T01:06:38.097Z,15.24
2018-05-23T01:09:04.037Z,15.23
2018-05-23T01:11:31.605Z,15.27
2018-05-23T01:13:57.495Z,15.29
2018-05-23T01:16:26.723Z,15.37
2018-05-23T01:18:54.288Z,15.46
2018-05-23T01:21:20.987Z,15.51
2018-05-23T01:23:46.895Z,15.62
2018-05-23T01:26:16.104Z,15.72
2018-05-23T01:28:42.028Z,15.76
2018-05-23T01:31:11.845Z,15.78
2018-05-23T01:33:37.852Z,15.82
2018-05-23T01:36:03.809Z,15.85
2018-05-23T01:38:29.755Z,15.87
2018-05-23T01:40:55.667Z,15.83
2018-05-23T01:43:21.620Z,15.71
2018-05-23T01:45:47.557Z,15.65
2018-05-23T01:48:16.563Z,15.70
2018-05-23T01:50:42.511Z,15.75
2018-05-23T01:53:11.337Z,15.79
2018-05-23T01:55:37.281Z,15.79
2018-05-23T01:58:06.530Z,15.77
2018-05-23T02:00:32.491Z,15.74
2018-05-23T02:03:01.619Z,15.72
2018-05-23T02:05:27.513Z,15.73
2018-05-23T02:07:57.087Z,15.68
2018-05-23T02:10:23.003Z,15.66
2018-05-23T02:12:48.957Z,15.63
2018-05-23T02:15:14.879Z,15.59
2018-05-23T02:17:40.818Z,15.59
2018-05-23T02:20:06.887Z,15.61
2018-05-23T02:22:32.839Z,15.62
2018-05-23T02:25:02.638Z,15.60
2018-05-23T02:27:28.598Z,15.60
2018-05-23T02:29:56.859Z,15.61
2018-05-23T02:32:22.804Z,15.67
2018-05-23T02:34:52.055Z,15.71
2018-05-23T02:37:17.953Z,15.76
2018-05-23T02:39:46.446Z,15.78
2018-05-23T02:42:12.356Z,15.80
2018-05-23T02:44:42.232Z,15.83
2018-05-23T02:47:08.173Z,15.84
2018-05-23T02:49:34.062Z,15.84
2018-05-23T02:52:00.011Z,15.80
2018-05-23T02:54:25.941Z,15.81
2018-05-23T02:56:52.717Z,15.78
2018-05-23T02:59:18.683Z,15.70
2018-05-23T03:01:47.908Z,15.72
2018-05-23T03:04:13.849Z,15.75
2018-05-23T03:06:41.696Z,15.73
2018-05-23T03:09:07.652Z,15.71
2018-05-23T03:11:36.587Z,15.70
2018-05-23T03:14:02.585Z,15.66
2018-05-23T03:16:31.700Z,15.61
2018-05-23T03:18:57.600Z,15.60
2018-05-23T03:21:25.835Z,15.38
2018-05-23T03:23:51.771Z,15.36
2018-05-23T03:26:17.723Z,15.40
2018-05-23T03:28:43.659Z,15.42
2018-05-23T03:31:09.597Z,15.45
2018-05-23T03:33:38.783Z,15.45
2018-05-23T03:36:04.739Z,15.46
2018-05-23T03:38:33.870Z,15.41
2018-05-23T03:40:59.815Z,15.43
2018-05-23T03:43:28.809Z,15.43
2018-05-23T03:45:54.731Z,15.43
2018-05-23T03:48:23.706Z,15.45
2018-05-23T03:50:49.605Z,15.37
2018-05-23T03:53:16.496Z,15.43
2018-05-23T03:55:42.416Z,15.41
2018-05-23T03:58:11.299Z,15.38
2018-05-23T04:00:49.707Z,15.38
2018-05-23T04:03:27.871Z,15.27
2018-05-23T04:06:06.141Z,15.17
2018-05-23T04:08:32.062Z,15.11
2018-05-23T04:10:57.977Z,15.05
2018-05-23T04:13:23.923Z,15.07
2018-05-23T04:15:49.895Z,14.98
2018-05-23T04:18:15.786Z,14.92
2018-05-23T04:20:41.720Z,14.90
2018-05-23T04:23:07.600Z,14.83
2018-05-23T04:25:33.519Z,14.78
2018-05-23T04:27:59.432Z,14.80
2018-05-23T04:30:25.349Z,14.87
2018-05-23T04:32:51.258Z,14.88
2018-05-23T04:35:17.190Z,14.88
2018-05-23T04:37:43.117Z,14.88
2018-05-23T04:40:09.041Z,14.99
2018-05-23T04:42:34.991Z,15.07
2018-05-23T04:45:00.965Z,15.11
2018-05-23T04:47:26.924Z,15.16
2018-05-23T04:49:52.862Z,15.17
2018-05-23T04:52:18.755Z,15.15
2018-05-23T04:54:44.701Z,15.25
2018-05-23T04:57:10.637Z,15.15
2018-05-23T04:59:36.562Z,15.15
2018-05-23T05:02:02.956Z,15.24
2018-05-23T05:04:28.937Z,15.34
2018-05-23T05:06:54.883Z,15.48
2018-05-23T05:09:20.829Z,15.58
2018-05-23T05:11:46.729Z,15.62
2018-05-23T05:14:12.691Z,15.65
2018-05-23T05:16:38.602Z,15.69
2018-05-23T05:19:04.550Z,15.74
2018-05-23T05:21:30.429Z,15.65
2018-05-23T05:23:57.156Z,15.70
2018-05-23T05:26:23.084Z,15.77
2018-05-23T05:28:48.987Z,15.80
2018-05-23T05:31:14.923Z,15.88
2018-05-23T05:33:44.452Z,15.84
2018-05-23T05:36:10.321Z,15.86
2018-05-23T05:38:39.418Z,15.91
2018-05-23T05:41:05.361Z,15.92
2018-05-23T05:43:32.611Z,15.90
2018-05-23T05:45:58.504Z,15.93
2018-05-23T05:48:27.641Z,16.00
2018-05-23T05:50:53.589Z,16.05
2018-05-23T05:53:19.519Z,16.09
2018-05-23T05:55:45.445Z,16.13
2018-05-23T05:58:11.370Z,16.13
2018-05-23T06:00:40.370Z,16.13
2018-05-23T06:03:06.293Z,16.13
2018-05-23T06:05:33.675Z,16.16
2018-05-23T06:07:59.585Z,16.17
2018-05-23T06:10:28.610Z,16.26
2018-05-23T06:12:54.531Z,16.31
2018-05-23T06:15:23.633Z,16.27
2018-05-23T06:17:49.535Z,16.27
2018-05-23T06:20:17.612Z,16.25
2018-05-23T06:22:43.522Z,16.24
2018-05-23T06:25:12.361Z,16.38
2018-05-23T06:27:38.276Z,16.41
2018-05-23T06:30:04.238Z,16.39
2018-05-23T06:32:30.195Z,16.48
2018-05-23T06:34:56.120Z,16.52
2018-05-23T06:37:24.453Z,16.51
2018-05-23T06:39:50.343Z,16.55
2018-05-23T06:42:19.385Z,16.53
2018-05-23T06:44:45.330Z,16.55
2018-05-23T06:47:14.705Z,16.64
2018-05-23T06:49:40.577Z,16.74
2018-05-23T06:52:09.892Z,16.81
2018-05-23T06:54:35.775Z,16.89
2018-05-23T06:57:04.939Z,17.01
2018-05-23T06:59:30.858Z,17.09
2018-05-23T07:01:58.302Z,17.07
2018-05-23T07:04:24.250Z,17.03
2018-05-23T07:06:50.145Z,17.15
2018-05-23T07:09:16.123Z,17.28
2018-05-23T07:11:42.055Z,17.30
2018-05-23T07:14:10.085Z,17.33
2018-05-23T07:16:36.050Z,17.41
2018-05-23T07:19:05.410Z,17.34
2018-05-23T07:21:31.324Z,17.40
2018-05-23T07:24:00.625Z,17.47
2018-05-23T07:26:26.529Z,17.57
2018-05-23T07:28:54.433Z,17.63
2018-05-23T07:31:20.330Z,17.71
2018-05-23T07:33:50.072Z,17.71
2018-05-23T07:36:15.995Z,17.76
2018-05-23T07:38:43.187Z,17.72
2018-05-23T07:41:09.114Z,17.61
2018-05-23T07:43:35.051Z,17.52
2018-05-23T07:46:00.990Z,17.42
2018-05-23T07:48:26.921Z,17.42
2018-05-23T07:50:54.766Z,17.30
2018-05-23T07:53:20.693Z,17.30
2018-05-23T07:55:49.603Z,17.31
2018-05-23T07:58:15.501Z,17.23
2018-05-23T08:00:45.101Z,17.26
2018-05-23T08:03:11.021Z,17.31
2018-05-23T08:05:39.434Z,17.47
2018-05-23T08:08:05.402Z,17.67
2018-05-23T08:10:34.354Z,17.82
2018-05-23T08:13:00.300Z,17.84
2018-05-23T08:15:29.845Z,18.01
2018-05-23T08:17:55.798Z,17.87
2018-05-23T08:20:23.885Z,17.98
2018-05-23T08:22:49.799Z,18.11
2018-05-23T08:25:15.739Z,18.48
2018-05-23T08:27:41.693Z,18.51
2018-05-23T08:30:08.637Z,18.42
2018-05-23T08:32:35.031Z,18.17
2018-05-23T08:35:00.934Z,18.16
2018-05-23T08:37:30.259Z,18.25
2018-05-23T08:39:56.145Z,18.35
2018-05-23T08:42:25.528Z,18.32
2018-05-23T08:44:51.415Z,18.45
2018-05-23T08:47:20.948Z,18.60
2018-05-23T08:49:46.822Z,18.78
2018-05-23T08:52:13.900Z,18.77
2018-05-23T08:54:39.835Z,18.78
2018-05-23T08:57:05.756Z,18.67
2018-05-23T08:59:31.739Z,18.57
2018-05-23T09:01:57.663Z,18.52
2018-05-23T09:04:27.064Z,18.53
2018-05-23T09:06:52.983Z,18.52
2018-05-23T09:09:21.941Z,18.62
2018-05-23T09:11:47.916Z,18.73
2018-05-23T09:14:14.740Z,18.65
2018-05-23T09:16:40.689Z,18.57
2018-05-23T09:19:09.410Z,18.68
2018-05-23T09:21:35.334Z,18.85
2018-05-23T09:24:04.311Z,18.93
2018-05-23T09:26:30.255Z,18.99
2018-05-23T09:28:59.098Z,18.85
2018-05-23T09:31:25.016Z,18.63
2018-05-23T09:33:50.938Z,18.64
2018-05-23T09:36:16.837Z,18.87
2018-05-23T09:38:42.767Z,19.02
2018-05-23T09:41:12.468Z,19.23
2018-05-23T09:43:38.393Z,19.33
2018-05-23T09:46:05.940Z,19.31
2018-05-23T09:48:31.861Z,19.51
2018-05-23T09:51:01.127Z,19.49
2018-05-23T09:53:27.037Z,19.47
2018-05-23T09:55:54.965Z,19.41
2018-05-23T09:58:20.924Z,19.57
2018-05-23T10:00:50.296Z,19.64
2018-05-23T10:03:16.216Z,19.91
2018-05-23T10:05:45.450Z,20.03
2018-05-23T10:08:11.345Z,20.28
2018-05-23T10:10:37.372Z,20.33
2018-05-23T10:13:03.297Z,20.21
2018-05-23T10:15:29.194Z,20.20
2018-05-23T10:17:56.230Z,20.25
2018-05-23T10:20:22.719Z,20.32
2018-05-23T10:22:55.726Z,20.37
2018-05-23T10:25:21.833Z,20.07
2018-05-23T10:27:48.094Z,20.06
2018-05-23T10:30:14.022Z,20.03
2018-05-23T10:32:41.006Z,20.25
2018-05-23T10:35:06.945Z,20.30
2018-05-23T10:37:35.229Z,20.31
2018-05-23T10:40:01.163Z,20.23
2018-05-23T10:42:30.590Z,20.02
2018-05-23T10:44:56.519Z,20.11
2018-05-23T10:47:22.405Z,20.14
2018-05-23T10:49:48.331Z,20.15
2018-05-23T10:52:14.241Z,20.30
2018-05-23T10:54:41.325Z,20.37
2018-05-23T10:57:07.300Z,20.45
2018-05-23T10:59:36.133Z,20.59
2018-05-23T11:02:02.094Z,20.62
2018-05-23T11:04:31.184Z,20.64
2018-05-23T11:06:57.131Z,20.61
2018-05-23T11:09:25.711Z,20.23
2018-05-23T11:11:51.647Z,20.20
2018-05-23T11:14:21.027Z,20.47
2018-05-23T11:16:46.989Z,20.49
2018-05-23T11:19:14.979Z,20.52
2018-05-23T11:21:40.975Z,20.73
2018-05-23T11:24:06.905Z,20.99
2018-05-23T11:26:32.826Z,21.08
2018-05-23T11:28:58.787Z,21.29
2018-05-23T11:31:28.541Z,21.47
2018-05-23T11:33:54.503Z,21.57
2018-05-23T11:36:21.965Z,21.60
2018-05-23T11:38:47.926Z,21.70
2018-05-23T11:41:16.884Z,21.75
2018-05-23T11:43:42.857Z,21.55
2018-05-23T11:46:12.084Z,22.01
2018-05-23T11:48:37.988Z,22.42
2018-05-23T11:51:07.258Z,22.54
2018-05-23T11:53:33.228Z,22.39
2018-05-23T11:56:00.695Z,22.59
2018-05-23T11:58:26.640Z,22.85
2018-05-23T12:00:52.802Z,23.02
2018-05-23T12:03:18.752Z,22.94
2018-05-23T12:05:44.678Z,22.49
2018-05-23T12:08:12.545Z,22.62
2018-05-23T12:10:38.680Z,23.29
2018-05-23T12:13:08.417Z,23.68
2018-05-23T12:15:34.476Z,23.66
2018-05-23T12:18:01.612Z,23.56
2018-05-23T12:20:27.561Z,23.34
2018-05-23T12:22:56.791Z,23.30
2018-05-23T12:25:22.683Z,23.31
2018-05-23T12:27:51.880Z,23.66
2018-05-23T12:30:17.823Z,23.84
2018-05-23T12:32:46.840Z,23.89
2018-05-23T12:35:12.762Z,24.00
2018-05-23T12:37:38.656Z,24.19
2018-05-23T12:40:04.626Z,24.69
2018-05-23T12:42:30.504Z,24.80
2018-05-23T12:44:58.095Z,25.12
2018-05-23T12:47:24.005Z,25.11
2018-05-23T12:49:52.459Z,25.16
2018-05-23T12:52:18.410Z,24.56
2018-05-23T12:54:47.967Z,24.27
2018-05-23T12:57:13.884Z,25.01
2018-05-23T12:59:43.071Z,25.81
2018-05-23T13:02:08.988Z,26.20
2018-05-23T13:04:36.126Z,25.60
2018-05-23T13:07:02.122Z,25.84
2018-05-23T13:09:31.031Z,25.98
2018-05-23T13:11:56.990Z,25.91
2018-05-23T13:14:22.936Z,25.89
2018-05-23T13:16:48.828Z,25.40
2018-05-23T13:19:14.725Z,25.88
2018-05-23T13:21:44.378Z,26.07
2018-05-23T13:24:10.355Z,25.87
2018-05-23T13:26:37.198Z,25.95
2018-05-23T13:29:03.078Z,26.06
2018-05-23T13:31:31.833Z,25.95
2018-05-23T13:33:57.767Z,25.90
2018-05-23T13:36:30.546Z,25.87
2018-05-23T13:38:56.588Z,25.87
2018-05-23T13:41:22.420Z,26.26
2018-05-23T13:43:48.334Z,26.25
2018-05-23T13:46:16.191Z,26.15
2018-05-23T13:48:42.119Z,26.56
2018-05-23T13:51:08.092Z,26.87
2018-05-23T13:53:34.051Z,26.56
2018-05-23T13:55:59.969Z,25.88
2018-05-23T13:58:29.548Z,25.60
2018-05-23T14:00:55.469Z,25.68
2018-05-23T14:03:24.575Z,25.95
2018-05-23T14:05:50.536Z,26.03
2018-05-23T14:08:18.280Z,25.74
2018-05-23T14:10:44.174Z,25.58
2018-05-23T14:13:13.331Z,25.39
2018-05-23T14:15:39.261Z,25.27
2018-05-23T14:18:08.447Z,25.23
2018-05-23T14:20:34.383Z,25.86
2018-05-23T14:23:01.647Z,26.21
2018-05-23T14:25:27.587Z,26.64
2018-05-23T14:27:53.491Z,27.22
2018-05-23T14:30:19.456Z,27.58
2018-05-23T14:32:45.336Z,27.53
2018-05-23T14:35:13.527Z,27.16
2018-05-23T14:37:39.469Z,26.95
2018-05-23T14:40:08.583Z,26.94
2018-05-23T14:42:34.504Z,27.29
2018-05-23T14:45:03.758Z,27.41
2018-05-23T14:47:29.677Z,27.76
2018-05-23T14:49:59.015Z,28.04
2018-05-23T14:52:24.945Z,28.36
2018-05-23T14:54:52.165Z,28.40
2018-05-23T14:57:18.095Z,28.53
2018-05-23T14:59:47.786Z,28.43
2018-05-23T15:02:13.719Z,28.46
2018-05-23T15:04:39.656Z,28.61
2018-05-23T15:07:05.591Z,28.77
2018-05-23T15:09:31.569Z,28.73
2018-05-23T15:11:58.871Z,28.76
2018-05-23T15:14:24.877Z,28.70
2018-05-23T15:16:54.245Z,28.50
2018-05-23T15:19:20.139Z,28.63
2018-05-23T15:21:48.005Z,28.45
2018-05-23T15:24:13.973Z,28.18
2018-05-23T15:26:43.743Z,27.97
2018-05-23T15:29:09.672Z,27.73
2018-05-23T15:31:37.664Z,27.67
2018-05-23T15:34:03.608Z,27.68
2018-05-23T15:36:32.762Z,27.93
2018-05-23T15:38:58.712Z,28.04
2018-05-23T15:41:24.615Z,27.88
2018-05-23T15:43:50.563Z,27.77
2018-05-23T15:46:16.439Z,27.81
2018-05-23T15:48:44.060Z,27.93
2018-05-23T15:51:10.049Z,27.91
2018-05-23T15:53:39.307Z,28.04
2018-05-23T15:56:05.211Z,28.00
2018-05-23T15:58:34.820Z,27.29
2018-05-23T16:01:00.751Z,27.23
2018-05-23T16:03:28.063Z,26.90
2018-05-23T16:05:53.983Z,26.80
2018-05-23T16:08:22.987Z,26.94
2018-05-23T16:10:48.895Z,27.22
2018-05-23T16:13:18.197Z,27.27
2018-05-23T16:15:45.628Z,27.18
2018-05-23T16:18:19.595Z,27.13
2018-05-23T16:20:46.010Z,26.87
2018-05-23T16:23:14.091Z,26.70
2018-05-23T16:25:40.007Z,26.66
2018-05-23T16:28:12.981Z,26.44
2018-05-23T16:30:46.555Z,26.37
2018-05-23T16:33:13.328Z,26.32
2018-05-23T16:35:39.241Z,26.21
2018-05-23T16:38:11.945Z,26.12
2018-05-23T16:40:39.124Z,25.97
2018-05-23T16:43:05.402Z,25.95
2018-05-23T16:45:31.285Z,25.87
2018-05-23T16:47:57.334Z,25.73
2018-05-23T16:50:23.291Z,25.64
2018-05-23T16:52:49.198Z,25.56
2018-05-23T16:55:15.124Z,25.34
2018-05-23T16:57:40.992Z,25.17
2018-05-23T17:00:06.887Z,25.08
2018-05-23T17:02:32.838Z,25.03
2018-05-23T17:04:58.715Z,24.93
2018-05-23T17:07:24.632Z,24.85
2018-05-23T17:09:50.583Z,24.82
2018-05-23T17:12:16.482Z,24.80
2018-05-23T17:14:43.680Z,24.76
2018-05-23T17:17:09.717Z,24.73
2018-05-23T17:19:35.637Z,24.53
2018-05-23T17:22:01.540Z,24.43
2018-05-23T17:24:27.657Z,24.31
2018-05-23T17:26:53.775Z,24.27
2018-05-23T17:29:19.701Z,24.15
2018-05-23T17:31:46.437Z,24.03
2018-05-23T17:34:12.396Z,23.92
2018-05-23T17:36:38.340Z,23.88
2018-05-23T17:39:05.167Z,23.83
2018-05-23T17:41:31.106Z,23.65
2018-05-23T17:43:57.069Z,23.62
2018-05-23T17:46:22.984Z,23.54
2018-05-23T17:48:49.337Z,23.45
2018-05-23T17:51:15.235Z,23.45
2018-05-23T17:53:44.526Z,23.42
2018-05-23T17:56:10.479Z,23.36
2018-05-23T17:58:38.718Z,23.36
2018-05-23T18:01:04.642Z,23.19
2018-05-23T18:03:34.190Z,23.13
2018-05-23T18:06:00.317Z,23.11
2018-05-23T18:08:26.338Z,23.09
2018-05-23T18:10:52.278Z,23.07
2018-05-23T18:13:18.233Z,22.99
2018-05-23T18:15:46.538Z,22.95
2018-05-23T18:18:12.655Z,22.91
2018-05-23T18:20:39.900Z,22.90
2018-05-23T18:23:05.811Z,22.92
2018-05-23T18:25:35.208Z,22.87
2018-05-23T18:28:01.105Z,22.77
2018-05-23T18:30:29.344Z,22.07
2018-05-23T18:32:55.415Z,21.71
2018-05-23T18:35:24.568Z,21.58
2018-05-23T18:37:50.754Z,21.48
2018-05-23T18:40:20.503Z,21.31
2018-05-23T18:42:46.395Z,21.29
2018-05-23T18:45:12.301Z,21.31
2018-05-23T18:47:38.229Z,21.22
2018-05-23T18:50:04.177Z,21.05
2018-05-23T18:52:30.397Z,21.05
2018-05-23T18:54:56.340Z,21.00
2018-05-23T18:57:25.567Z,20.91
2018-05-23T18:59:52.428Z,20.78
2018-05-23T19:02:21.462Z,20.80
2018-05-23T19:04:47.336Z,20.74
2018-05-23T19:07:15.023Z,20.69
2018-05-23T19:09:40.947Z,20.65
2018-05-23T19:12:10.335Z,20.64
2018-05-23T19:14:36.424Z,20.62
2018-05-23T19:17:03.988Z,20.56
2018-05-23T19:19:29.998Z,20.49
2018-05-23T19:21:55.883Z,20.50
2018-05-23T19:24:21.842Z,20.46
2018-05-23T19:26:47.848Z,20.41
2018-05-23T19:29:15.844Z,20.39
2018-05-23T19:31:42.484Z,20.27
2018-05-23T19:34:12.129Z,20.20
2018-05-23T19:36:38.049Z,20.16
2018-05-23T19:39:08.122Z,20.07
2018-05-23T19:41:34.076Z,19.96
2018-05-23T19:44:00.093Z,19.88
2018-05-23T19:46:26.052Z,19.91
2018-05-23T19:48:55.566Z,19.94
2018-05-23T19:51:21.481Z,19.93
2018-05-23T19:53:50.478Z,19.88
2018-05-23T19:56:16.461Z,19.80
2018-05-23T19:58:42.547Z,19.75
2018-05-23T20:01:09.330Z,19.67
2018-05-23T20:03:35.250Z,19.59
2018-05-23T20:06:01.204Z,19.51
2018-05-23T20:08:27.150Z,19.44
2018-05-23T20:10:56.663Z,19.37
2018-05-23T20:13:22.584Z,19.31
2018-05-23T20:15:52.166Z,19.29
2018-05-23T20:18:18.150Z,19.23
2018-05-23T20:20:46.125Z,19.19
2018-05-23T20:23:13.375Z,19.20
2018-05-23T20:25:40.355Z,19.06
2018-05-23T20:28:06.262Z,19.01
2018-05-23T20:30:35.210Z,19.01
2018-05-23T20:33:01.212Z,19.03
2018-05-23T20:35:27.179Z,18.99
2018-05-23T20:37:53.304Z,19.03
2018-05-23T20:40:19.220Z,19.03
2018-05-23T20:42:46.298Z,18.99
2018-05-23T20:45:12.251Z,18.87
2018-05-23T20:47:41.024Z,18.85
2018-05-23T20:50:07.041Z,18.81
2018-05-23T20:52:36.378Z,18.81
2018-05-23T20:55:02.303Z,18.75
2018-05-23T20:57:30.488Z,18.58
2018-05-23T20:59:56.393Z,18.45
2018-05-23T21:02:25.368Z,18.55
2018-05-23T21:04:51.300Z,18.57
2018-05-23T21:07:21.108Z,18.47
2018-05-23T21:09:47.033Z,18.45
2018-05-23T21:12:13.023Z,18.45
2018-05-23T21:14:39.246Z,18.41
2018-05-23T21:17:05.313Z,18.36
2018-05-23T21:19:32.219Z,18.31
2018-05-23T21:21:58.088Z,18.23
2018-05-23T21:24:27.634Z,18.15
2018-05-23T21:26:54.114Z,18.16
2018-05-23T21:29:21.788Z,18.14
2018-05-23T21:31:47.742Z,18.10
2018-05-23T21:34:19.417Z,18.06
2018-05-23T21:36:45.425Z,18.11
2018-05-23T21:39:11.551Z,18.13
2018-05-23T21:41:37.509Z,18.04
2018-05-23T21:44:07.684Z,18.00
2018-05-23T21:46:33.604Z,17.93
2018-05-23T21:48:59.566Z,17.88
2018-05-23T21:51:25.450Z,17.84
2018-05-23T21:53:51.780Z,17.73
2018-05-23T21:56:17.685Z,17.60
2018-05-23T21:58:43.613Z,17.57
2018-05-23T22:01:13.356Z,17.64
2018-05-23T22:03:39.293Z,17.60
2018-05-23T22:06:06.601Z,17.53
2018-05-23T22:08:32.478Z,17.55
2018-05-23T22:11:01.829Z,17.49
2018-05-23T22:13:27.734Z,17.41
2018-05-23T22:15:55.733Z,17.32
2018-05-23T22:18:22.036Z,17.24
2018-05-23T22:20:51.419Z,17.24
2018-05-23T22:23:17.459Z,17.20
2018-05-23T22:25:44.475Z,17.22
2018-05-23T22:28:10.441Z,17.20
2018-05-23T22:30:36.612Z,16.99
2018-05-23T22:33:02.549Z,16.94
2018-05-23T22:35:28.541Z,16.91
2018-05-23T22:37:57.902Z,16.87
2018-05-23T22:40:23.789Z,16.87
2018-05-23T22:42:52.090Z,16.84
2018-05-23T22:45:18.001Z,16.79
2018-05-23T22:47:47.909Z,16.69
2018-05-23T22:50:13.802Z,16.71
2018-05-23T22:52:41.704Z,16.77
2018-05-23T22:55:07.780Z,16.67
2018-05-23T22:57:36.847Z,16.65
2018-05-23T23:00:02.795Z,16.63
2018-05-23T23:02:28.741Z,16.58
2018-05-23T23:04:54.681Z,16.64
2018-05-23T23:07:20.655Z,16.67
2018-05-23T23:09:47.707Z,16.69
2018-05-23T23:12:13.632Z,16.70
2018-05-23T23:14:43.928Z,16.70
2018-05-23T23:17:09.932Z,16.64
2018-05-23T23:19:37.450Z,16.62
2018-05-23T23:22:05.727Z,16.57
2018-05-23T23:24:32.967Z,16.55
2018-05-23T23:26:58.936Z,16.59
2018-05-23T23:29:26.568Z,16.63
2018-05-23T23:31:52.490Z,16.61
2018-05-23T23:34:21.529Z,16.63
2018-05-23T23:36:47.479Z,16.52
2018-05-23T23:39:13.401Z,16.44
2018-05-23T23:41:39.298Z,16.33
2018-05-23T23:44:05.217Z,16.32
2018-05-23T23:46:33.043Z,16.40
2018-05-23T23:48:58.947Z,16.38
2018-05-23T23:51:28.300Z,16.29
2018-05-23T23:53:54.498Z,16.17
2018-05-23T23:56:24.279Z,16.07
2018-05-23T23:58:50.213Z,16.06
